Time;durP1;ratioP1;P1;durP2;ratioP2;P2;SDS_P1;SDS_P2;PMS_P1;PMS_P2;Temp;Humidity;BMP_temperature;BMP_pressure;BME280_temperature;BME280_humidity;BME280_pressure;Samples;Min_cycle;Max_cycle;Signal;HPM_P1;HPM_P2
2021/08/09 00:00:43;;;;;;;12.27;4.90;;;;;;;15.46;85.34;101301.63;4830030;29;20109;-61
2021/08/09 00:03:10;;;;;;;21.35;4.50;;;;;;;15.36;86.50;101310.56;4829877;29;20065;-59
2021/08/09 00:05:36;;;;;;;16.75;4.63;;;;;;;15.26;87.11;101315.19;4817353;29;20571;-60
2021/08/09 00:08:03;;;;;;;20.05;4.70;;;;;;;15.29;86.95;101316.66;4842435;29;20121;-59
2021/08/09 00:10:30;;;;;;;16.20;5.00;;;;;;;15.87;83.74;101310.34;4834239;29;20079;-60
2021/08/09 00:12:57;;;;;;;14.80;4.78;;;;;;;15.57;84.98;101310.06;4836279;29;20550;-61
2021/08/09 00:15:25;;;;;;;13.00;4.30;;;;;;;15.39;85.65;101317.34;4831779;29;20149;-61
2021/08/09 00:17:52;;;;;;;17.30;4.30;;;;;;;15.26;86.80;101317.00;4829029;29;20165;-61
2021/08/09 00:20:19;;;;;;;13.98;4.53;;;;;;;15.23;87.44;101316.34;4836271;29;20054;-60
2021/08/09 00:22:45;;;;;;;16.45;4.90;;;;;;;15.17;87.48;101314.38;4829295;29;20085;-61
2021/08/09 00:25:14;;;;;;;20.10;4.78;;;;;;;15.72;84.85;101318.16;4836296;29;20104;-61
2021/08/09 00:27:40;;;;;;;20.33;4.50;;;;;;;15.88;83.55;101311.19;4830277;29;20529;-61
2021/08/09 00:30:08;;;;;;;14.50;4.25;;;;;;;15.98;82.21;101312.66;4833729;29;20688;-61
2021/08/09 00:32:35;;;;;;;18.38;4.97;;;;;;;16.18;81.62;101314.91;4825520;29;20057;-60
2021/08/09 00:35:03;;;;;;;14.80;4.55;;;;;;;16.19;80.71;101311.25;4832643;29;20134;-60
2021/08/09 00:37:29;;;;;;;26.95;5.47;;;;;;;16.15;80.80;101313.44;4834059;29;20160;-61
2021/08/09 00:39:56;;;;;;;17.65;4.63;;;;;;;16.15;81.12;101313.44;4832988;29;20145;-60
2021/08/09 00:42:22;;;;;;;21.23;4.35;;;;;;;15.99;82.00;101318.75;4835123;29;20598;-61
2021/08/09 00:44:48;;;;;;;18.75;4.93;;;;;;;16.09;81.15;101315.91;4824254;29;20570;-61
2021/08/09 00:47:15;;;;;;;13.90;4.50;;;;;;;15.97;81.64;101323.41;4836490;29;20053;-61
2021/08/09 00:49:42;;;;;;;18.75;4.68;;;;;;;15.28;84.66;101321.13;4833536;29;20551;-60
2021/08/09 00:52:09;;;;;;;16.23;4.25;;;;;;;15.58;83.28;101332.03;4843528;29;20492;-63
2021/08/09 00:54:36;;;;;;;14.95;4.53;;;;;;;15.17;84.80;101326.75;4830292;29;20060;-60
2021/08/09 00:57:03;;;;;;;17.38;4.93;;;;;;;15.03;86.31;101320.28;4832640;29;20149;-60
2021/08/09 00:59:30;;;;;;;14.63;4.72;;;;;;;15.23;86.13;101323.47;4832156;29;20451;-60
2021/08/09 01:01:57;;;;;;;14.00;4.55;;;;;;;15.75;82.71;101330.22;4822681;29;20103;-61
2021/08/09 01:04:23;;;;;;;18.33;4.35;;;;;;;15.34;84.58;101317.84;4836916;29;20058;-61
2021/08/09 01:06:50;;;;;;;19.73;4.90;;;;;;;15.23;84.95;101326.94;4835065;29;20554;-61
2021/08/09 01:09:19;;;;;;;18.08;4.63;;;;;;;15.71;83.28;101328.88;4842562;29;20062;-61
2021/08/09 01:12:03;;;;;;;18.73;4.75;;;;;;;15.96;82.28;101327.88;4818147;29;20096;-61
2021/08/09 01:15:11;;;;;;;17.92;4.32;;;;;;;16.06;80.80;101337.44;4825208;29;20053;-61
2021/08/09 01:17:41;;;;;;;14.90;4.40;;;;;;;16.04;80.59;101329.66;4824975;29;20062;-61
2021/08/09 01:20:50;;;;;;;25.48;4.88;;;;;;;16.13;80.81;101328.66;4837169;29;20152;-61
2021/08/09 01:24:10;;;;;;;18.52;4.75;;;;;;;16.12;79.81;101323.53;4823354;29;20157;-61
2021/08/09 01:26:56;;;;;;;15.00;4.22;;;;;;;16.19;79.42;101325.31;4827916;29;20111;-59
2021/08/09 01:29:32;;;;;;;17.50;4.60;;;;;;;16.08;80.06;101324.88;4814916;29;20141;-61
2021/08/09 01:32:00;;;;;;;20.33;4.93;;;;;;;16.15;79.52;101333.75;4827525;29;20160;-60
2021/08/09 01:34:28;;;;;;;18.63;4.47;;;;;;;16.08;80.12;101325.69;4824188;29;20146;-60
2021/08/09 01:36:58;;;;;;;22.17;4.90;;;;;;;16.03;79.87;101333.28;4829038;29;20157;-60
2021/08/09 01:39:24;;;;;;;16.02;4.63;;;;;;;15.98;80.32;101325.88;4818738;29;20064;-60
2021/08/09 01:41:52;;;;;;;14.65;4.25;;;;;;;16.07;79.80;101331.97;4825227;29;20144;-61
2021/08/09 01:44:19;;;;;;;21.02;4.70;;;;;;;15.99;79.96;101329.34;4826740;29;20573;-60
2021/08/09 01:46:46;;;;;;;19.27;4.30;;;;;;;15.94;79.87;101326.41;4830314;29;20085;-61
2021/08/09 01:49:14;;;;;;;17.70;4.93;;;;;;;15.96;80.25;101330.50;4834595;29;20081;-61
2021/08/09 01:51:41;;;;;;;16.77;4.95;;;;;;;15.91;80.09;101338.13;4811570;29;20519;-61
2021/08/09 01:54:09;;;;;;;17.10;4.50;;;;;;;15.93;80.25;101337.97;4823675;29;20081;-60
2021/08/09 01:56:38;;;;;;;17.55;5.43;;;;;;;15.80;80.83;101334.03;4824671;29;20050;-61
2021/08/09 01:59:05;;;;;;;19.45;4.63;;;;;;;15.94;80.28;101339.63;4829522;29;20049;-60
2021/08/09 02:01:32;;;;;;;22.08;4.30;;;;;;;15.87;80.01;101336.81;4819489;29;20052;-60
2021/08/09 02:03:59;;;;;;;19.67;4.85;;;;;;;15.47;81.65;101333.19;4827378;29;20053;-61
2021/08/09 02:06:25;;;;;;;17.02;5.95;;;;;;;15.38;83.18;101342.94;4821287;29;20083;-59
2021/08/09 02:08:52;;;;;;;22.92;5.00;;;;;;;15.39;83.57;101347.25;4832642;29;20602;-61
2021/08/09 02:11:33;;;;;;;18.65;4.90;;;;;;;15.63;81.95;101346.41;4828471;29;20134;-66
2021/08/09 02:14:02;;;;;;;23.33;4.88;;;;;;;15.39;82.09;101338.50;4821920;29;20572;-61
2021/08/09 02:16:42;;;;;;;18.70;4.53;;;;;;;15.70;81.22;101346.56;4835635;29;20168;-60
2021/08/09 02:19:15;;;;;;;25.02;6.07;;;;;;;15.41;83.40;101342.63;4828468;29;20146;-61
2021/08/09 02:21:57;;;;;;;21.08;5.10;;;;;;;15.14;84.45;101340.28;4829451;29;20494;-61
2021/08/09 02:24:29;;;;;;;17.75;4.82;;;;;;;14.88;86.01;101346.53;4828608;29;20064;-60
2021/08/09 02:27:09;;;;;;;14.65;4.30;;;;;;;15.29;84.30;101348.38;4835474;29;20114;-61
2021/08/09 02:29:40;;;;;;;25.00;4.68;;;;;;;15.58;82.48;101343.44;4829450;29;20157;-61
2021/08/09 02:32:08;;;;;;;19.17;5.10;;;;;;;15.73;82.07;101340.16;4831773;29;20184;-61
2021/08/09 02:34:36;;;;;;;14.70;5.22;;;;;;;15.77;80.79;101341.47;4821621;29;20100;-61
2021/08/09 02:37:04;;;;;;;18.58;4.93;;;;;;;15.72;80.68;101334.00;4835220;29;20064;-61
2021/08/09 02:39:31;;;;;;;;;;;;;;;15.40;82.18;101340.94;4835811;29;20141;-61
2021/08/09 02:41:59;;;;;;;19.40;5.60;;;;;;;15.58;81.22;101338.16;4826427;29;19932;-60
2021/08/09 02:44:27;;;;;;;19.23;5.03;;;;;;;15.73;80.68;101334.84;4834340;29;20145;-61
2021/08/09 02:46:56;;;;;;;20.48;5.32;;;;;;;15.51;81.00;101337.16;4824514;29;20104;-60
2021/08/09 02:49:23;;;;;;;20.70;4.63;;;;;;;15.29;83.34;101336.03;4831127;29;20145;-60
2021/08/09 02:51:49;;;;;;;18.65;5.05;;;;;;;15.30;83.33;101340.28;4828476;29;20521;-61
2021/08/09 02:54:17;;;;;;;20.63;4.65;;;;;;;15.07;84.29;101337.47;4834938;29;20068;-59
2021/08/09 02:56:45;;;;;;;17.67;4.53;;;;;;;14.75;86.79;101338.25;4826857;29;20160;-60
2021/08/09 02:59:13;;;;;;;19.65;4.72;;;;;;;15.08;85.76;101339.13;4833891;29;20479;-63
2021/08/09 03:01:41;;;;;;;21.38;4.63;;;;;;;15.48;82.33;101344.59;4826211;29;20747;-60
2021/08/09 03:04:13;;;;;;;20.67;4.57;;;;;;;15.48;81.74;101334.84;4826947;29;20065;-60
2021/08/09 03:06:40;;;;;;;22.92;4.88;;;;;;;14.84;86.52;101345.22;4834455;29;20181;-60
2021/08/09 03:09:07;;;;;;;23.27;5.22;;;;;;;14.96;86.01;101335.16;4846838;29;20152;-60
2021/08/09 03:11:34;;;;;;;19.88;4.88;;;;;;;14.77;86.58;101336.25;4845211;29;20140;-61
2021/08/09 03:14:01;;;;;;;25.67;5.18;;;;;;;15.34;83.50;101343.44;4827242;29;20144;-60
2021/08/09 03:16:28;;;;;;;24.90;4.78;;;;;;;15.52;81.78;101338.81;4830250;29;20493;-61
2021/08/09 03:18:54;;;;;;;20.70;5.13;;;;;;;15.15;83.16;101340.13;4834256;29;20160;-61
2021/08/09 03:21:21;;;;;;;17.70;4.55;;;;;;;14.92;85.57;101336.47;4828078;29;20134;-57
2021/08/09 03:23:47;;;;;;;18.33;4.88;;;;;;;14.81;86.06;101337.59;4833062;29;20092;-61
2021/08/09 03:26:14;;;;;;;13.65;4.38;;;;;;;15.15;84.24;101339.28;4827588;29;20105;-61
2021/08/09 03:28:40;;;;;;;21.45;4.50;;;;;;;15.26;83.64;101343.44;4829196;29;20112;-61
2021/08/09 03:31:07;;;;;;;16.90;5.65;;;;;;;14.82;85.80;101348.00;4832464;29;20141;-61
2021/08/09 03:33:33;;;;;;;14.52;4.20;;;;;;;14.96;85.36;101346.53;4834044;29;20077;-61
2021/08/09 03:36:00;;;;;;;24.33;5.75;;;;;;;15.05;83.86;101346.56;4831216;29;20490;-61
2021/08/09 03:38:27;;;;;;;24.85;4.43;;;;;;;14.81;85.50;101346.34;4839199;29;20094;-61
2021/08/09 03:40:53;;;;;;;22.02;4.75;;;;;;;14.68;86.95;101348.63;4835495;29;20157;-61
2021/08/09 03:43:20;;;;;;;20.65;4.60;;;;;;;14.61;87.65;101358.16;4831838;29;20475;-60
2021/08/09 03:45:46;;;;;;;17.25;3.85;;;;;;;15.15;85.35;101357.78;4837989;29;20161;-61
2021/08/09 03:48:12;;;;;;;22.33;4.10;;;;;;;14.89;85.37;101350.81;4831572;29;20105;-60
2021/08/09 03:50:39;;;;;;;18.83;5.00;;;;;;;14.64;87.18;101352.56;4833184;29;20680;-61
2021/08/09 03:53:06;;;;;;;21.65;4.53;;;;;;;14.57;87.94;101356.84;4826360;29;20807;-60
2021/08/09 03:55:32;;;;;;;24.20;5.05;;;;;;;14.93;86.45;101359.25;4836546;29;20141;-59
2021/08/09 03:57:59;;;;;;;21.02;4.97;;;;;;;14.67;87.67;101354.88;4829874;29;20514;-60
2021/08/09 04:00:26;;;;;;;23.75;4.22;;;;;;;14.83;85.96;101354.91;4835081;29;20157;-59
2021/08/09 04:02:53;;;;;;;24.40;4.57;;;;;;;14.74;87.65;101355.06;4835340;29;20640;-60
2021/08/09 04:05:21;;;;;;;23.60;5.38;;;;;;;15.14;86.11;101356.16;4826787;29;20085;-60
2021/08/09 04:07:50;;;;;;;18.13;4.00;;;;;;;14.97;86.16;101357.94;4833388;29;20081;-61
2021/08/09 04:10:16;;;;;;;;;;;;;;;15.11;85.02;101357.31;4829913;29;20550;-61
2021/08/09 04:12:43;;;;;;;19.85;4.32;;;;;;;15.55;82.30;101361.47;4837565;29;19980;-61
2021/08/09 04:15:09;;;;;;;20.20;4.72;;;;;;;15.15;83.41;101358.63;4827847;29;20480;-61
2021/08/09 04:17:36;;;;;;;24.02;4.82;;;;;;;14.89;86.07;101363.19;4837006;29;20560;-61
2021/08/09 04:20:03;;;;;;;24.02;4.97;;;;;;;14.95;86.69;101370.47;4824909;29;20858;-61
2021/08/09 04:22:29;;;;;;;21.00;4.22;;;;;;;14.85;86.62;101370.63;4835608;29;20160;-61
2021/08/09 04:24:56;;;;;;;20.70;4.75;;;;;;;14.61;87.85;101374.81;4839719;29;20077;-61
2021/08/09 04:27:22;;;;;;;23.27;4.47;;;;;;;14.59;88.40;101374.16;4830670;29;20152;-60
2021/08/09 04:29:49;;;;;;;26.45;4.75;;;;;;;14.62;88.78;101373.84;4837289;29;20498;-61
2021/08/09 04:32:16;;;;;;;22.17;5.05;;;;;;;15.39;84.07;101380.78;4830117;29;20145;-61
2021/08/09 04:34:43;;;;;;;17.27;4.40;;;;;;;15.66;82.20;101381.44;4833090;29;20149;-59
2021/08/09 04:37:10;;;;;;;23.85;4.32;;;;;;;15.36;82.63;101386.41;4834320;29;20066;-59
2021/08/09 04:39:37;;;;;;;14.90;4.50;;;;;;;15.38;83.16;101387.88;4839654;29;20049;-58
2021/08/09 04:42:05;;;;;;;23.65;4.53;;;;;;;14.92;85.47;101389.31;4844005;29;20096;-59
2021/08/09 04:44:39;;;;;;;31.15;4.85;;;;;;;15.25;84.57;101382.28;4845550;29;20145;-60
2021/08/09 04:47:05;;;;;;;18.13;4.30;;;;;;;15.67;82.15;101383.09;4837117;29;20058;-60
2021/08/09 04:49:32;;;;;;;23.05;4.47;;;;;;;15.88;81.07;101390.56;4832456;29;20107;-61
2021/08/09 04:51:58;;;;;;;22.63;4.72;;;;;;;15.95;79.97;101384.41;4837925;29;20972;-60
2021/08/09 04:54:25;;;;;;;18.30;3.97;;;;;;;15.62;81.63;101388.88;4828759;29;20085;-60
2021/08/09 04:56:51;;;;;;;14.45;4.18;;;;;;;15.14;85.49;101385.22;4843633;29;20054;-61
2021/08/09 04:59:18;;;;;;;23.23;4.20;;;;;;;15.76;82.15;101390.91;4826696;29;20152;-59
2021/08/09 05:01:44;;;;;;;19.23;5.00;;;;;;;15.31;83.49;101386.91;4835442;29;20695;-59
2021/08/09 05:04:11;;;;;;;13.90;4.32;;;;;;;15.19;85.58;101385.53;4838799;29;20057;-61
2021/08/09 05:06:37;;;;;;;22.88;4.75;;;;;;;14.96;87.48;101388.00;4843432;29;20093;-61
2021/08/09 05:09:04;;;;;;;19.63;4.20;;;;;;;15.49;84.57;101393.84;4844047;29;20081;-61
2021/08/09 05:11:30;;;;;;;19.80;4.60;;;;;;;15.35;85.58;101395.34;4830468;29;20113;-61
2021/08/09 05:13:57;;;;;;;23.60;4.13;;;;;;;15.18;85.95;101392.66;4835084;29;20165;-61
2021/08/09 05:16:27;;;;;;;21.10;4.68;;;;;;;15.20;86.86;101395.13;4833679;29;20049;-60
2021/08/09 05:18:57;;;;;;;23.73;5.35;;;;;;;15.81;82.89;101403.63;4840362;29;20050;-61
2021/08/09 05:21:23;;;;;;;23.33;4.22;;;;;;;16.15;81.44;101400.75;4836875;29;20140;-61
2021/08/09 05:23:50;;;;;;;15.32;5.10;;;;;;;16.20;80.01;101398.41;4842725;29;20667;-60
2021/08/09 05:26:17;;;;;;;21.23;5.13;;;;;;;15.95;81.80;101402.09;4828602;29;20152;-61
2021/08/09 05:28:43;;;;;;;16.42;4.47;;;;;;;15.75;83.49;101412.22;4831924;29;20050;-60
2021/08/09 05:31:12;;;;;;;15.65;3.97;;;;;;;15.59;83.88;101407.72;4828532;29;20063;-61
2021/08/09 05:33:39;;;;;;;;;;;;;;;15.57;85.01;101404.44;4833461;29;20885;-58
2021/08/09 05:36:06;;;;;;;21.58;6.43;;;;;;;15.39;86.10;101408.03;4837318;29;20798;-61
2021/08/09 05:38:33;;;;;;;13.38;4.00;;;;;;;15.47;86.20;101411.69;4826364;29;20648;-60
2021/08/09 05:41:01;;;;;;;26.10;4.68;;;;;;;15.51;84.76;101407.72;4824768;29;20074;-61
2021/08/09 05:43:27;;;;;;;18.05;5.38;;;;;;;15.50;85.28;101406.88;4825731;29;20149;-60
2021/08/09 05:45:54;;;;;;;21.48;4.97;;;;;;;15.65;85.12;101400.97;4834109;29;20546;-61
2021/08/09 05:48:20;;;;;;;16.88;5.88;;;;;;;15.77;84.52;101411.06;4833978;29;20068;-61
2021/08/09 05:50:47;;;;;;;25.30;5.40;;;;;;;15.89;83.34;101416.00;4836590;29;20161;-61
2021/08/09 05:53:14;;;;;;;13.52;4.47;;;;;;;16.06;82.27;101416.81;4829823;29;20089;-61
2021/08/09 05:55:40;;;;;;;29.70;5.90;;;;;;;16.01;83.13;101419.97;4831636;29;20058;-60
2021/08/09 05:58:07;;;;;;;23.40;4.60;;;;;;;16.05;82.70;101418.63;4838697;29;20109;-63
2021/08/09 06:00:33;;;;;;;25.40;5.85;;;;;;;16.08;81.85;101420.13;4833152;29;20147;-61
2021/08/09 06:03:00;;;;;;;17.48;5.10;;;;;;;16.18;82.27;101418.13;4844185;29;20495;-61
2021/08/09 06:05:27;;;;;;;11.73;4.40;;;;;;;16.17;81.91;101412.00;4828314;29;20176;-61
2021/08/09 06:07:54;;;;;;;22.83;4.55;;;;;;;16.19;81.53;101422.41;4831602;29;20481;-61
2021/08/09 06:10:22;;;;;;;21.17;4.75;;;;;;;16.26;81.17;101423.38;4824950;29;20054;-60
2021/08/09 06:12:49;;;;;;;21.42;5.55;;;;;;;16.19;81.65;101420.59;4835900;29;20908;-59
2021/08/09 06:15:15;;;;;;;15.15;5.03;;;;;;;16.28;81.35;101424.03;4830863;29;20081;-61
2021/08/09 06:17:42;;;;;;;17.77;5.07;;;;;;;16.74;79.55;101424.25;4831283;29;20168;-61
2021/08/09 06:20:09;;;;;;;23.60;6.00;;;;;;;16.56;79.83;101423.63;4839169;29;20061;-61
2021/08/09 06:22:35;;;;;;;19.40;4.57;;;;;;;16.97;77.48;101429.63;4831180;29;20144;-61
2021/08/09 06:25:02;;;;;;;23.33;6.20;;;;;;;16.40;80.02;101430.63;4844067;29;20071;-60
2021/08/09 06:27:29;;;;;;;22.27;5.45;;;;;;;16.01;83.12;101428.75;4830370;29;20058;-61
2021/08/09 06:29:55;;;;;;;20.55;5.78;;;;;;;15.78;84.64;101431.22;4834526;29;20081;-60
2021/08/09 06:32:23;;;;;;;24.67;5.85;;;;;;;15.80;85.65;101431.06;4835245;29;20140;-60
2021/08/09 06:34:50;;;;;;;19.40;6.73;;;;;;;15.84;85.33;101437.69;4829021;29;20145;-61
2021/08/09 06:37:17;;;;;;;18.70;5.70;;;;;;;15.75;86.31;101434.19;4832467;29;20954;-61
2021/08/09 06:39:43;;;;;;;27.40;5.78;;;;;;;15.71;86.93;101429.38;4829174;29;20058;-61
2021/08/09 06:42:10;;;;;;;20.65;6.50;;;;;;;16.08;84.83;101428.88;4837506;29;20089;-60
2021/08/09 06:44:36;;;;;;;16.70;6.45;;;;;;;16.02;83.88;101435.66;4828173;29;20140;-61
2021/08/09 06:47:03;;;;;;;18.60;5.78;;;;;;;15.78;86.19;101433.06;4837861;29;20149;-61
2021/08/09 06:49:29;;;;;;;20.40;5.15;;;;;;;15.80;87.14;101434.53;4824652;29;20050;-61
2021/08/09 06:51:56;;;;;;;18.25;6.38;;;;;;;15.75;87.20;101444.78;4832517;29;20096;-61
2021/08/09 06:54:25;;;;;;;14.88;5.30;;;;;;;15.88;86.56;101444.28;4825202;29;20077;-62
2021/08/09 06:56:52;;;;;;;23.52;7.80;;;;;;;16.11;86.89;101431.22;4828472;29;20053;-61
2021/08/09 06:59:19;;;;;;;18.77;6.68;;;;;;;16.04;85.87;101438.16;4830460;29;20050;-61
2021/08/09 07:01:46;;;;;;;15.40;5.82;;;;;;;16.18;86.20;101439.28;4822354;29;20165;-61
2021/08/09 07:04:12;;;;;;;21.70;6.30;;;;;;;16.26;85.42;101430.50;4827232;29;20990;-59
2021/08/09 07:06:39;;;;;;;19.88;6.07;;;;;;;16.54;84.88;101437.06;4821672;29;20161;-60
2021/08/09 07:09:06;;;;;;;18.50;5.43;;;;;;;17.15;78.83;101431.16;4829769;29;20831;-59
2021/08/09 07:11:33;;;;;;;25.40;6.10;;;;;;;16.89;79.72;101437.59;4824305;29;20152;-60
2021/08/09 07:13:59;;;;;;;20.40;6.13;;;;;;;16.79;79.72;101448.38;4824722;29;20066;-58
2021/08/09 07:16:27;;;;;;;21.98;6.45;;;;;;;16.45;82.83;101435.44;4827445;29;20471;-60
2021/08/09 07:18:53;;;;;;;16.77;5.50;;;;;;;16.90;80.66;101441.09;4821994;29;20050;-60
2021/08/09 07:21:20;;;;;;;16.10;5.30;;;;;;;16.52;82.35;101436.38;4843436;29;20072;-60
2021/08/09 07:23:47;;;;;;;18.92;5.38;;;;;;;16.57;83.09;101443.84;4839866;29;20153;-60
2021/08/09 07:26:13;;;;;;;20.10;5.28;;;;;;;16.52;83.95;101440.84;4835189;29;20068;-60
2021/08/09 07:28:40;;;;;;;17.20;4.75;;;;;;;17.16;80.40;101432.81;4829795;29;20110;-60
2021/08/09 07:31:07;;;;;;;15.85;4.68;;;;;;;17.59;77.11;101426.06;4829341;29;20090;-60
2021/08/09 07:33:34;;;;;;;16.98;4.80;;;;;;;17.24;79.06;101434.59;4825224;29;20054;-61
2021/08/09 07:36:01;;;;;;;15.82;5.00;;;;;;;17.67;76.37;101437.63;4833679;29;20177;-60
2021/08/09 07:38:27;;;;;;;19.77;5.40;;;;;;;18.04;76.42;101439.47;4835357;29;20223;-60
2021/08/09 07:40:54;;;;;;;16.45;4.18;;;;;;;17.52;76.75;101437.56;4824367;29;20152;-61
2021/08/09 07:43:20;;;;;;;21.20;4.75;;;;;;;17.33;79.66;101444.16;4831145;29;20098;-60
2021/08/09 07:45:47;;;;;;;21.05;4.28;;;;;;;17.09;79.84;101438.00;4825987;29;20148;-60
2021/08/09 07:48:14;;;;;;;20.60;4.38;;;;;;;17.12;81.13;101437.66;4832638;29;20053;-58
2021/08/09 07:50:42;;;;;;;19.23;4.13;;;;;;;17.44;78.32;101438.44;4828485;29;20502;-59
2021/08/09 07:53:08;;;;;;;18.40;4.60;;;;;;;17.52;76.48;101437.56;4829652;29;20812;-60
2021/08/09 07:55:35;;;;;;;16.98;4.07;;;;;;;17.48;76.68;101433.59;4821676;29;20093;-59
2021/08/09 07:58:01;;;;;;;12.57;3.40;;;;;;;17.38;78.73;101431.19;4834282;29;20063;-61
2021/08/09 08:00:28;;;;;;;17.95;4.07;;;;;;;17.35;80.26;101435.03;4830270;29;20101;-61
2021/08/09 08:02:55;;;;;;;25.98;4.53;;;;;;;17.33;77.95;101438.88;4823558;29;20097;-60
2021/08/09 08:05:22;;;;;;;17.65;4.72;;;;;;;17.29;76.67;101438.38;4830821;29;20145;-60
2021/08/09 08:07:48;;;;;;;26.02;4.60;;;;;;;17.34;77.73;101441.31;4824849;29;20065;-60
2021/08/09 08:10:15;;;;;;;16.02;5.47;;;;;;;17.44;79.23;101437.63;4830699;29;20146;-61
2021/08/09 08:12:42;;;;;;;21.15;5.38;;;;;;;17.45;77.89;101437.44;4820436;29;20140;-61
2021/08/09 08:15:09;;;;;;;14.38;4.28;;;;;;;17.55;76.43;101440.69;4827348;29;20069;-60
2021/08/09 08:17:35;;;;;;;14.45;4.22;;;;;;;17.70;77.58;101430.13;4828004;29;20515;-60
2021/08/09 08:20:03;;;;;;;14.63;4.90;;;;;;;18.09;74.51;101438.94;4830688;29;20169;-61
2021/08/09 08:22:29;;;;;;;20.45;5.10;;;;;;;18.30;74.55;101431.06;4834213;29;20089;-61
2021/08/09 08:24:56;;;;;;;18.65;4.40;;;;;;;19.27;69.97;101430.06;4826226;29;20968;-61
2021/08/09 08:27:22;;;;;;;16.27;4.78;;;;;;;19.06;69.96;101433.50;4829453;29;20053;-61
2021/08/09 08:29:49;;;;;;;18.70;4.85;;;;;;;18.78;71.18;101433.38;4828161;29;20577;-61
2021/08/09 08:32:15;;;;;;;19.25;4.38;;;;;;;19.14;70.60;101430.72;4834794;29;20065;-57
2021/08/09 08:34:42;;;;;;;14.05;4.40;;;;;;;19.06;68.63;101422.06;4828412;29;20145;-61
2021/08/09 08:37:08;;;;;;;18.58;3.58;;;;;;;19.38;65.92;101428.72;4834947;29;20263;-61
2021/08/09 08:39:35;;;;;;;12.55;2.97;;;;;;;19.36;64.67;101439.53;4832485;29;20203;-61
2021/08/09 08:42:01;;;;;;;12.10;3.75;;;;;;;19.32;65.59;101438.28;4825738;29;20141;-61
2021/08/09 08:44:28;;;;;;;13.98;4.40;;;;;;;19.49;65.20;101433.53;4835046;29;20467;-60
2021/08/09 08:46:55;;;;;;;22.48;3.72;;;;;;;19.69;64.10;101435.56;4831584;29;20546;-60
2021/08/09 08:49:23;;;;;;;14.50;3.60;;;;;;;19.98;63.64;101434.59;4841251;29;20696;-61
2021/08/09 08:51:50;;;;;;;13.90;3.42;;;;;;;20.01;64.31;101428.84;4832568;29;20577;-61
2021/08/09 08:54:17;;;;;;;17.10;3.63;;;;;;;20.05;64.43;101431.97;4826608;29;20145;-61
2021/08/09 08:56:45;;;;;;;15.60;3.53;;;;;;;20.11;65.65;101431.19;4837808;29;20580;-61
2021/08/09 08:59:14;;;;;;;16.92;3.72;;;;;;;20.32;63.13;101440.94;4841380;29;20476;-62
2021/08/09 09:01:43;;;;;;;18.27;4.03;;;;;;;20.82;60.99;101438.97;4838363;29;20489;-60
2021/08/09 09:04:35;;;;;;;11.55;3.00;;;;;;;20.35;61.09;101436.06;4839797;29;20057;-61
2021/08/09 09:07:06;;;;;;;15.10;3.55;;;;;;;20.69;61.52;101436.25;4834961;29;20592;-61
2021/08/09 09:09:38;;;;;;;12.07;3.10;;;;;;;20.58;60.11;101440.28;4827570;29;20138;-61
2021/08/09 09:12:19;;;;;;;16.27;3.85;;;;;;;20.96;62.07;101441.72;4841670;29;20057;-61
2021/08/09 09:15:01;;;;;;;15.40;3.40;;;;;;;21.26;60.78;101437.66;4821035;29;20118;-63
2021/08/09 09:17:36;;;;;;;15.68;3.65;;;;;;;20.96;59.58;101431.03;4834120;29;20053;-61
2021/08/09 09:20:22;;;;;;;13.65;3.03;;;;;;;21.54;58.26;101439.38;4825098;29;20176;-61
2021/08/09 09:22:50;;;;;;;12.77;3.28;;;;;;;21.19;59.38;101439.50;4817199;29;21270;-61
2021/08/09 09:25:30;;;;;;;14.48;3.30;;;;;;;21.07;59.71;101444.63;4828722;29;20104;-61
2021/08/09 09:27:56;;;;;;;15.05;3.50;;;;;;;21.09;59.94;101444.38;4829409;29;20182;-61
2021/08/09 09:30:30;;;;;;;14.75;3.80;;;;;;;21.18;58.27;101447.72;4838943;29;20102;-61
2021/08/09 09:33:04;;;;;;;12.02;2.95;;;;;;;21.20;58.40;101438.47;4827366;29;20061;-61
2021/08/09 09:35:36;;;;;;;14.15;2.80;;;;;;;21.06;58.21;101445.63;4826549;29;20681;-61
2021/08/09 09:38:03;;;;;;;9.23;3.20;;;;;;;20.89;59.52;101452.31;4832067;29;21666;-61
2021/08/09 09:40:38;;;;;;;12.07;3.10;;;;;;;20.93;60.65;101450.91;4834967;29;20097;-61
2021/08/09 09:43:20;;;;;;;11.27;3.28;;;;;;;20.99;60.95;101452.78;4824132;29;20149;-61
2021/08/09 09:45:53;;;;;;;12.60;3.22;;;;;;;21.43;60.47;101450.66;4834371;29;20058;-61
2021/08/09 09:48:35;;;;;;;12.88;3.13;;;;;;;21.67;59.39;101444.72;4833396;29;20062;-61
2021/08/09 09:51:09;;;;;;;14.68;3.20;;;;;;;22.18;58.64;101445.13;4829348;29;20136;-61
2021/08/09 09:53:36;;;;;;;14.15;3.63;;;;;;;22.39;57.32;101447.56;4823031;29;20149;-61
2021/08/09 09:56:03;;;;;;;15.70;3.58;;;;;;;21.98;57.48;101435.28;4842773;29;20684;-61
2021/08/09 09:58:30;;;;;;;10.90;3.03;;;;;;;22.17;57.08;101438.97;4831794;29;20607;-61
2021/08/09 10:00:59;;;;;;;12.90;2.90;;;;;;;22.07;57.37;101443.88;4837867;29;20148;-61
2021/08/09 10:03:26;;;;;;;13.80;3.20;;;;;;;21.89;57.27;101444.53;4828816;29;20061;-61
2021/08/09 10:05:53;;;;;;;14.35;3.22;;;;;;;21.72;58.20;101444.13;4835194;29;20693;-61
2021/08/09 10:08:20;;;;;;;11.27;3.67;;;;;;;21.63;58.44;101440.81;4834825;29;20157;-61
2021/08/09 10:10:51;;;;;;;14.98;2.95;;;;;;;21.58;57.85;101437.13;4826435;29;20125;-60
2021/08/09 10:13:19;;;;;;;11.00;2.67;;;;;;;21.58;58.48;101434.44;4832258;29;20145;-61
2021/08/09 10:15:58;;;;;;;13.00;3.42;;;;;;;21.45;58.94;101429.94;4827883;29;20053;-61
2021/08/09 10:18:27;;;;;;;13.65;3.35;;;;;;;21.45;58.70;101428.09;4830794;29;20215;-60
2021/08/09 10:20:55;;;;;;;9.52;3.42;;;;;;;21.43;58.37;101435.47;4837908;29;20510;-61
2021/08/09 10:23:47;;;;;;;12.82;2.60;;;;;;;21.49;58.60;101429.31;4840868;29;20121;-62
2021/08/09 10:26:31;;;;;;;10.27;2.50;;;;;;;21.65;56.93;101436.09;4832400;29;20096;-61
2021/08/09 10:29:11;;;;;;;12.38;2.95;;;;;;;21.67;57.26;101433.22;4839918;29;20100;-61
2021/08/09 10:31:42;;;;;;;10.90;2.80;;;;;;;21.89;58.01;101431.16;4822260;29;20148;-62
2021/08/09 10:34:30;;;;;;;10.85;2.90;;;;;;;21.65;56.87;101430.75;4832638;29;20061;-61
2021/08/09 10:37:16;;;;;;;10.43;2.80;;;;;;;21.85;56.47;101438.75;4827807;29;20140;-61
2021/08/09 10:39:45;;;;;;;14.10;3.30;;;;;;;21.77;57.04;101435.50;4830809;29;20081;-62
2021/08/09 10:42:29;;;;;;;9.70;2.78;;;;;;;21.83;56.68;101432.81;4828739;29;20120;-61
2021/08/09 10:44:56;;;;;;;9.48;2.90;;;;;;;22.10;56.12;101430.13;4823915;29;20491;-62
2021/08/09 10:47:49;;;;;;;8.93;2.80;;;;;;;21.95;55.13;101427.66;4832711;29;20058;-62
2021/08/09 10:50:24;;;;;;;12.40;2.55;;;;;;;21.84;55.12;101439.00;4840124;29;20170;-62
2021/08/09 10:52:54;;;;;;;10.45;2.38;;;;;;;21.75;54.35;101443.69;4839921;29;20061;-62
2021/08/09 10:55:30;;;;;;;8.35;2.28;;;;;;;21.68;55.26;101437.56;4835835;29;20141;-61
2021/08/09 10:58:04;;;;;;;7.00;2.38;;;;;;;21.70;56.56;101435.50;4834035;29;20506;-62
2021/08/09 11:00:42;;;;;;;8.65;2.50;;;;;;;21.70;55.91;101438.19;4831322;29;20161;-62
2021/08/09 11:03:16;;;;;;;7.47;2.28;;;;;;;21.62;55.03;101441.03;4841851;29;20086;-62
2021/08/09 11:05:43;;;;;;;8.45;2.38;;;;;;;21.35;55.81;101442.84;4831437;29;20061;-62
2021/08/09 11:08:15;;;;;;;10.90;2.47;;;;;;;21.27;57.32;101436.66;4840303;29;20624;-62
2021/08/09 11:10:51;;;;;;;12.20;2.60;;;;;;;21.18;58.70;101445.84;4826504;29;20117;-61
2021/08/09 11:13:18;;;;;;;7.72;2.60;;;;;;;21.03;59.82;101448.72;4836847;29;20084;-62
2021/08/09 11:16:04;;;;;;;12.35;2.80;;;;;;;20.98;60.61;101448.47;4833574;29;20053;-61
2021/08/09 11:18:34;;;;;;;10.88;2.80;;;;;;;20.90;59.23;101448.66;4841058;29;20086;-61
2021/08/09 11:21:06;;;;;;;6.80;2.00;;;;;;;20.64;58.55;101450.19;4834035;29;20049;-62
2021/08/09 11:23:37;;;;;;;7.65;2.00;;;;;;;20.62;60.15;101468.22;4840364;29;20097;-62
2021/08/09 11:26:05;;;;;;;8.13;2.10;;;;;;;20.68;63.11;101463.91;4838658;29;20442;-60
2021/08/09 11:28:32;;;;;;;10.13;2.30;;;;;;;20.63;64.26;101472.53;4834261;29;20546;-62